sensor_id;sensor_type;location;lat;lon;timestamp;P1;durP1;ratioP1;P2;durP2;ratioP2
11539;SDS011;5826;54.756;9.192;2022-11-20T00:01:45;2.93;;;1.30;;
11539;SDS011;5826;54.756;9.192;2022-11-20T00:04:11;1.50;;;1.40;;
11539;SDS011;5826;54.756;9.192;2022-11-20T00:06:37;2.30;;;1.50;;
11539;SDS011;5826;54.756;9.192;2022-11-20T00:09:02;2.10;;;1.57;;
11539;SDS011;5826;54.756;9.192;2022-11-20T00:11:30;2.07;;;1.63;;
11539;SDS011;5826;54.756;9.192;2022-11-20T00:13:57;2.23;;;1.60;;
11539;SDS011;5826;54.756;9.192;2022-11-20T00:16:25;1.67;;;1.40;;
11539;SDS011;5826;54.756;9.192;2022-11-20T00:18:52;3.70;;;1.53;;
11539;SDS011;5826;54.756;9.192;2022-11-20T00:21:20;2.03;;;1.40;;
11539;SDS011;5826;54.756;9.192;2022-11-20T00:23:50;1.83;;;1.50;;
11539;SDS011;5826;54.756;9.192;2022-11-20T00:26:17;2.97;;;1.40;;
11539;SDS011;5826;54.756;9.192;2022-11-20T00:28:48;1.60;;;1.50;;
11539;SDS011;5826;54.756;9.192;2022-11-20T00:31:16;2.10;;;1.27;;
11539;SDS011;5826;54.756;9.192;2022-11-20T00:33:42;2.00;;;1.40;;
11539;SDS011;5826;54.756;9.192;2022-11-20T00:36:16;1.90;;;1.27;;
11539;SDS011;5826;54.756;9.192;2022-11-20T00:38:43;2.20;;;1.30;;
11539;SDS011;5826;54.756;9.192;2022-11-20T00:41:10;2.30;;;1.30;;
11539;SDS011;5826;54.756;9.192;2022-11-20T00:43:37;2.30;;;1.40;;
11539;SDS011;5826;54.756;9.192;2022-11-20T00:46:05;2.50;;;1.50;;
11539;SDS011;5826;54.756;9.192;2022-11-20T00:48:32;1.93;;;1.50;;
11539;SDS011;5826;54.756;9.192;2022-11-20T00:50:57;2.10;;;1.50;;
11539;SDS011;5826;54.756;9.192;2022-11-20T00:53:23;2.43;;;1.53;;
11539;SDS011;5826;54.756;9.192;2022-11-20T00:55:59;1.50;;;1.40;;
11539;SDS011;5826;54.756;9.192;2022-11-20T00:58:30;2.87;;;1.67;;
11539;SDS011;5826;54.756;9.192;2022-11-20T01:01:04;2.23;;;1.50;;
11539;SDS011;5826;54.756;9.192;2022-11-20T01:03:35;1.60;;;1.50;;
11539;SDS011;5826;54.756;9.192;2022-11-20T01:06:04;1.67;;;1.40;;
11539;SDS011;5826;54.756;9.192;2022-11-20T01:08:50;1.83;;;1.40;;
11539;SDS011;5826;54.756;9.192;2022-11-20T01:11:18;2.07;;;1.50;;
11539;SDS011;5826;54.756;9.192;2022-11-20T01:13:46;2.17;;;1.60;;
11539;SDS011;5826;54.756;9.192;2022-11-20T01:16:13;2.13;;;1.47;;
11539;SDS011;5826;54.756;9.192;2022-11-20T01:18:45;2.03;;;1.67;;
11539;SDS011;5826;54.756;9.192;2022-11-20T01:21:16;1.80;;;1.40;;
11539;SDS011;5826;54.756;9.192;2022-11-20T01:23:46;1.53;;;1.43;;
11539;SDS011;5826;54.756;9.192;2022-11-20T01:26:13;1.60;;;1.37;;
11539;SDS011;5826;54.756;9.192;2022-11-20T01:28:41;2.27;;;1.60;;
11539;SDS011;5826;54.756;9.192;2022-11-20T01:31:11;2.03;;;1.30;;
11539;SDS011;5826;54.756;9.192;2022-11-20T01:33:49;2.17;;;1.33;;
11539;SDS011;5826;54.756;9.192;2022-11-20T01:36:16;2.60;;;1.77;;
11539;SDS011;5826;54.756;9.192;2022-11-20T01:38:43;2.33;;;1.40;;
11539;SDS011;5826;54.756;9.192;2022-11-20T01:41:10;1.30;;;1.20;;
11539;SDS011;5826;54.756;9.192;2022-11-20T01:43:57;2.17;;;1.60;;
11539;SDS011;5826;54.756;9.192;2022-11-20T01:46:22;1.37;;;1.27;;
11539;SDS011;5826;54.756;9.192;2022-11-20T01:48:54;1.63;;;1.40;;
11539;SDS011;5826;54.756;9.192;2022-11-20T01:51:35;1.83;;;1.50;;
11539;SDS011;5826;54.756;9.192;2022-11-20T01:54:09;2.67;;;1.50;;
11539;SDS011;5826;54.756;9.192;2022-11-20T01:56:39;2.30;;;1.47;;
11539;SDS011;5826;54.756;9.192;2022-11-20T01:59:07;3.53;;;1.47;;
11539;SDS011;5826;54.756;9.192;2022-11-20T02:01:34;1.67;;;1.30;;
11539;SDS011;5826;54.756;9.192;2022-11-20T02:04:00;2.03;;;1.50;;
11539;SDS011;5826;54.756;9.192;2022-11-20T02:06:31;2.33;;;1.30;;
11539;SDS011;5826;54.756;9.192;2022-11-20T02:09:01;1.80;;;1.53;;
11539;SDS011;5826;54.756;9.192;2022-11-20T02:11:27;2.07;;;1.10;;
11539;SDS011;5826;54.756;9.192;2022-11-20T02:13:55;1.93;;;1.63;;
11539;SDS011;5826;54.756;9.192;2022-11-20T02:16:21;1.70;;;1.60;;
11539;SDS011;5826;54.756;9.192;2022-11-20T02:18:50;3.17;;;1.73;;
11539;SDS011;5826;54.756;9.192;2022-11-20T02:24:20;2.80;;;1.40;;
11539;SDS011;5826;54.756;9.192;2022-11-20T02:26:54;1.50;;;1.30;;
11539;SDS011;5826;54.756;9.192;2022-11-20T02:29:26;1.70;;;1.30;;
11539;SDS011;5826;54.756;9.192;2022-11-20T02:32:00;2.50;;;1.37;;
11539;SDS011;5826;54.756;9.192;2022-11-20T02:34:27;1.20;;;1.10;;
11539;SDS011;5826;54.756;9.192;2022-11-20T02:36:53;2.17;;;1.50;;
11539;SDS011;5826;54.756;9.192;2022-11-20T02:39:20;1.80;;;1.50;;
11539;SDS011;5826;54.756;9.192;2022-11-20T02:41:47;1.67;;;1.40;;
11539;SDS011;5826;54.756;9.192;2022-11-20T02:44:13;1.80;;;1.13;;
11539;SDS011;5826;54.756;9.192;2022-11-20T02:46:38;1.43;;;1.20;;
11539;SDS011;5826;54.756;9.192;2022-11-20T02:49:04;1.77;;;1.30;;
11539;SDS011;5826;54.756;9.192;2022-11-20T02:51:30;1.73;;;1.10;;
11539;SDS011;5826;54.756;9.192;2022-11-20T02:53:56;1.60;;;1.20;;
11539;SDS011;5826;54.756;9.192;2022-11-20T02:56:22;1.30;;;1.10;;
11539;SDS011;5826;54.756;9.192;2022-11-20T02:58:48;1.10;;;1.00;;
11539;SDS011;5826;54.756;9.192;2022-11-20T03:01:13;1.40;;;1.20;;
11539;SDS011;5826;54.756;9.192;2022-11-20T03:03:39;1.10;;;0.97;;
11539;SDS011;5826;54.756;9.192;2022-11-20T03:06:05;2.47;;;1.30;;
11539;SDS011;5826;54.756;9.192;2022-11-20T03:08:30;2.63;;;1.30;;
11539;SDS011;5826;54.756;9.192;2022-11-20T03:10:56;2.53;;;1.37;;
11539;SDS011;5826;54.756;9.192;2022-11-20T03:13:21;1.23;;;1.13;;
11539;SDS011;5826;54.756;9.192;2022-11-20T03:15:47;1.63;;;1.20;;
11539;SDS011;5826;54.756;9.192;2022-11-20T03:18:12;1.20;;;1.10;;
11539;SDS011;5826;54.756;9.192;2022-11-20T03:20:38;2.90;;;1.10;;
11539;SDS011;5826;54.756;9.192;2022-11-20T03:23:04;1.57;;;1.47;;
11539;SDS011;5826;54.756;9.192;2022-11-20T03:25:29;1.40;;;1.30;;
11539;SDS011;5826;54.756;9.192;2022-11-20T03:27:55;1.47;;;1.13;;
11539;SDS011;5826;54.756;9.192;2022-11-20T03:30:20;1.33;;;1.10;;
11539;SDS011;5826;54.756;9.192;2022-11-20T03:32:46;1.50;;;1.20;;
11539;SDS011;5826;54.756;9.192;2022-11-20T03:35:12;1.10;;;1.00;;
11539;SDS011;5826;54.756;9.192;2022-11-20T03:37:37;1.20;;;1.10;;
11539;SDS011;5826;54.756;9.192;2022-11-20T03:40:03;1.30;;;1.07;;
11539;SDS011;5826;54.756;9.192;2022-11-20T03:42:29;1.47;;;1.20;;
11539;SDS011;5826;54.756;9.192;2022-11-20T03:45:10;1.60;;;1.20;;
11539;SDS011;5826;54.756;9.192;2022-11-20T03:47:35;1.63;;;1.27;;
11539;SDS011;5826;54.756;9.192;2022-11-20T03:50:01;1.47;;;1.03;;
11539;SDS011;5826;54.756;9.192;2022-11-20T03:52:27;1.20;;;1.10;;
11539;SDS011;5826;54.756;9.192;2022-11-20T03:54:52;1.20;;;1.03;;
11539;SDS011;5826;54.756;9.192;2022-11-20T03:57:18;1.50;;;1.10;;
11539;SDS011;5826;54.756;9.192;2022-11-20T03:59:43;1.80;;;1.20;;
11539;SDS011;5826;54.756;9.192;2022-11-20T04:02:09;1.20;;;1.00;;
11539;SDS011;5826;54.756;9.192;2022-11-20T04:04:34;1.43;;;1.30;;
11539;SDS011;5826;54.756;9.192;2022-11-20T04:07:00;1.10;;;1.00;;
11539;SDS011;5826;54.756;9.192;2022-11-20T04:09:25;1.30;;;1.10;;
11539;SDS011;5826;54.756;9.192;2022-11-20T04:11:51;2.67;;;1.20;;
11539;SDS011;5826;54.756;9.192;2022-11-20T04:14:16;2.33;;;1.40;;
11539;SDS011;5826;54.756;9.192;2022-11-20T04:16:42;1.40;;;1.10;;
11539;SDS011;5826;54.756;9.192;2022-11-20T04:19:14;2.30;;;1.43;;
11539;SDS011;5826;54.756;9.192;2022-11-20T04:21:41;1.73;;;1.30;;
11539;SDS011;5826;54.756;9.192;2022-11-20T04:24:07;1.67;;;1.40;;
11539;SDS011;5826;54.756;9.192;2022-11-20T04:26:33;1.57;;;1.47;;
11539;SDS011;5826;54.756;9.192;2022-11-20T04:28:59;1.40;;;1.30;;
11539;SDS011;5826;54.756;9.192;2022-11-20T04:31:30;1.80;;;1.40;;
11539;SDS011;5826;54.756;9.192;2022-11-20T04:34:04;2.63;;;1.50;;
11539;SDS011;5826;54.756;9.192;2022-11-20T04:36:30;2.10;;;1.20;;
11539;SDS011;5826;54.756;9.192;2022-11-20T04:38:57;2.37;;;1.10;;
11539;SDS011;5826;54.756;9.192;2022-11-20T04:41:28;2.77;;;1.30;;
11539;SDS011;5826;54.756;9.192;2022-11-20T04:43:56;1.40;;;1.20;;
11539;SDS011;5826;54.756;9.192;2022-11-20T04:46:24;1.40;;;1.30;;
11539;SDS011;5826;54.756;9.192;2022-11-20T04:48:51;1.77;;;1.30;;
11539;SDS011;5826;54.756;9.192;2022-11-20T04:51:17;1.30;;;1.20;;
11539;SDS011;5826;54.756;9.192;2022-11-20T04:53:42;1.20;;;1.10;;
11539;SDS011;5826;54.756;9.192;2022-11-20T04:56:08;1.20;;;1.10;;
11539;SDS011;5826;54.756;9.192;2022-11-20T04:58:36;1.87;;;1.30;;
11539;SDS011;5826;54.756;9.192;2022-11-20T05:01:02;1.60;;;1.30;;
11539;SDS011;5826;54.756;9.192;2022-11-20T05:03:30;2.20;;;1.33;;
11539;SDS011;5826;54.756;9.192;2022-11-20T05:05:56;1.73;;;1.40;;
11539;SDS011;5826;54.756;9.192;2022-11-20T05:08:24;1.60;;;1.50;;
11539;SDS011;5826;54.756;9.192;2022-11-20T05:10:50;2.37;;;1.57;;
11539;SDS011;5826;54.756;9.192;2022-11-20T05:13:15;2.30;;;1.20;;
11539;SDS011;5826;54.756;9.192;2022-11-20T05:15:40;1.57;;;1.40;;
11539;SDS011;5826;54.756;9.192;2022-11-20T05:18:06;1.40;;;1.30;;
11539;SDS011;5826;54.756;9.192;2022-11-20T05:20:32;1.33;;;1.23;;
11539;SDS011;5826;54.756;9.192;2022-11-20T05:22:57;2.70;;;1.57;;
11539;SDS011;5826;54.756;9.192;2022-11-20T05:25:23;1.10;;;1.00;;
11539;SDS011;5826;54.756;9.192;2022-11-20T05:27:48;1.90;;;1.50;;
11539;SDS011;5826;54.756;9.192;2022-11-20T05:30:14;1.70;;;1.40;;
11539;SDS011;5826;54.756;9.192;2022-11-20T05:32:40;2.33;;;1.50;;
11539;SDS011;5826;54.756;9.192;2022-11-20T05:35:05;1.53;;;1.30;;
11539;SDS011;5826;54.756;9.192;2022-11-20T05:37:31;1.70;;;1.30;;
11539;SDS011;5826;54.756;9.192;2022-11-20T05:39:57;1.40;;;1.27;;
11539;SDS011;5826;54.756;9.192;2022-11-20T05:42:22;2.47;;;1.47;;
11539;SDS011;5826;54.756;9.192;2022-11-20T05:45:00;1.60;;;1.50;;
11539;SDS011;5826;54.756;9.192;2022-11-20T05:47:28;1.30;;;1.20;;
11539;SDS011;5826;54.756;9.192;2022-11-20T05:49:56;2.47;;;1.30;;
11539;SDS011;5826;54.756;9.192;2022-11-20T05:52:22;1.70;;;1.50;;
11539;SDS011;5826;54.756;9.192;2022-11-20T05:54:47;1.80;;;1.50;;
11539;SDS011;5826;54.756;9.192;2022-11-20T05:57:13;3.27;;;1.50;;
11539;SDS011;5826;54.756;9.192;2022-11-20T05:59:38;1.97;;;1.50;;
11539;SDS011;5826;54.756;9.192;2022-11-20T06:02:04;2.53;;;1.50;;
11539;SDS011;5826;54.756;9.192;2022-11-20T06:04:29;2.17;;;1.40;;
11539;SDS011;5826;54.756;9.192;2022-11-20T06:06:55;1.67;;;1.57;;
11539;SDS011;5826;54.756;9.192;2022-11-20T06:09:20;2.20;;;1.77;;
11539;SDS011;5826;54.756;9.192;2022-11-20T06:11:46;1.30;;;1.20;;
11539;SDS011;5826;54.756;9.192;2022-11-20T06:14:11;1.50;;;1.40;;
11539;SDS011;5826;54.756;9.192;2022-11-20T06:16:37;1.60;;;1.50;;
11539;SDS011;5826;54.756;9.192;2022-11-20T06:19:02;1.50;;;1.40;;
11539;SDS011;5826;54.756;9.192;2022-11-20T06:21:28;1.40;;;1.30;;
11539;SDS011;5826;54.756;9.192;2022-11-20T06:23:53;1.57;;;1.30;;
11539;SDS011;5826;54.756;9.192;2022-11-20T06:26:20;1.40;;;1.30;;
11539;SDS011;5826;54.756;9.192;2022-11-20T06:28:47;1.63;;;1.40;;
11539;SDS011;5826;54.756;9.192;2022-11-20T06:31:14;1.90;;;1.37;;
11539;SDS011;5826;54.756;9.192;2022-11-20T06:33:41;1.40;;;1.30;;
11539;SDS011;5826;54.756;9.192;2022-11-20T06:36:07;1.30;;;1.20;;
11539;SDS011;5826;54.756;9.192;2022-11-20T06:38:34;1.40;;;1.30;;
11539;SDS011;5826;54.756;9.192;2022-11-20T06:40:59;1.47;;;1.37;;
11539;SDS011;5826;54.756;9.192;2022-11-20T06:43:25;1.40;;;1.27;;
11539;SDS011;5826;54.756;9.192;2022-11-20T06:45:54;1.67;;;1.37;;
11539;SDS011;5826;54.756;9.192;2022-11-20T06:48:21;1.37;;;1.10;;
11539;SDS011;5826;54.756;9.192;2022-11-20T06:50:48;1.47;;;1.20;;
11539;SDS011;5826;54.756;9.192;2022-11-20T06:53:13;2.27;;;1.30;;
11539;SDS011;5826;54.756;9.192;2022-11-20T06:55:45;1.50;;;1.40;;
11539;SDS011;5826;54.756;9.192;2022-11-20T06:58:12;2.13;;;1.67;;
11539;SDS011;5826;54.756;9.192;2022-11-20T07:00:39;3.93;;;3.23;;
11539;SDS011;5826;54.756;9.192;2022-11-20T07:03:05;5.17;;;3.77;;
11539;SDS011;5826;54.756;9.192;2022-11-20T07:05:32;5.50;;;3.70;;
11539;SDS011;5826;54.756;9.192;2022-11-20T07:07:57;3.20;;;2.73;;
11539;SDS011;5826;54.756;9.192;2022-11-20T07:10:24;2.87;;;1.93;;
11539;SDS011;5826;54.756;9.192;2022-11-20T07:12:50;3.13;;;2.17;;
11539;SDS011;5826;54.756;9.192;2022-11-20T07:15:17;2.00;;;1.80;;
11539;SDS011;5826;54.756;9.192;2022-11-20T07:17:43;1.90;;;1.60;;
11539;SDS011;5826;54.756;9.192;2022-11-20T07:20:09;1.87;;;1.43;;
11539;SDS011;5826;54.756;9.192;2022-11-20T07:22:35;1.50;;;1.40;;
11539;SDS011;5826;54.756;9.192;2022-11-20T07:25:00;1.53;;;1.30;;
11539;SDS011;5826;54.756;9.192;2022-11-20T07:27:26;1.50;;;1.40;;
11539;SDS011;5826;54.756;9.192;2022-11-20T07:29:52;3.63;;;2.00;;
11539;SDS011;5826;54.756;9.192;2022-11-20T07:32:18;1.80;;;1.70;;
11539;SDS011;5826;54.756;9.192;2022-11-20T07:34:43;1.73;;;1.40;;
11539;SDS011;5826;54.756;9.192;2022-11-20T07:37:09;2.30;;;1.40;;
11539;SDS011;5826;54.756;9.192;2022-11-20T07:39:34;1.30;;;1.20;;
11539;SDS011;5826;54.756;9.192;2022-11-20T07:42:00;1.63;;;1.33;;
11539;SDS011;5826;54.756;9.192;2022-11-20T07:44:25;1.70;;;1.60;;
11539;SDS011;5826;54.756;9.192;2022-11-20T07:46:51;1.50;;;1.40;;
11539;SDS011;5826;54.756;9.192;2022-11-20T07:49:16;1.40;;;1.30;;
11539;SDS011;5826;54.756;9.192;2022-11-20T07:51:42;1.40;;;1.30;;
11539;SDS011;5826;54.756;9.192;2022-11-20T07:54:07;1.30;;;1.10;;
11539;SDS011;5826;54.756;9.192;2022-11-20T07:56:33;1.50;;;1.40;;
11539;SDS011;5826;54.756;9.192;2022-11-20T07:58:59;1.83;;;1.17;;
11539;SDS011;5826;54.756;9.192;2022-11-20T08:01:24;1.50;;;1.40;;
11539;SDS011;5826;54.756;9.192;2022-11-20T08:03:50;1.50;;;1.40;;
11539;SDS011;5826;54.756;9.192;2022-11-20T08:06:15;1.50;;;1.40;;
11539;SDS011;5826;54.756;9.192;2022-11-20T08:08:41;1.83;;;1.40;;
11539;SDS011;5826;54.756;9.192;2022-11-20T08:11:06;1.43;;;1.33;;
11539;SDS011;5826;54.756;9.192;2022-11-20T08:13:50;1.33;;;1.10;;
11539;SDS011;5826;54.756;9.192;2022-11-20T08:16:34;2.20;;;1.40;;
11539;SDS011;5826;54.756;9.192;2022-11-20T08:19:00;1.40;;;1.30;;
11539;SDS011;5826;54.756;9.192;2022-11-20T08:21:25;1.50;;;1.40;;
11539;SDS011;5826;54.756;9.192;2022-11-20T08:23:51;1.60;;;1.20;;
11539;SDS011;5826;54.756;9.192;2022-11-20T08:26:16;1.23;;;1.13;;
11539;SDS011;5826;54.756;9.192;2022-11-20T08:28:42;1.67;;;1.33;;
11539;SDS011;5826;54.756;9.192;2022-11-20T08:31:08;1.53;;;1.30;;
11539;SDS011;5826;54.756;9.192;2022-11-20T08:33:34;1.13;;;1.03;;
11539;SDS011;5826;54.756;9.192;2022-11-20T08:36:00;1.40;;;1.30;;
11539;SDS011;5826;54.756;9.192;2022-11-20T08:38:27;1.43;;;1.33;;
11539;SDS011;5826;54.756;9.192;2022-11-20T08:40:57;1.60;;;1.50;;
11539;SDS011;5826;54.756;9.192;2022-11-20T08:43:41;1.30;;;1.20;;
11539;SDS011;5826;54.756;9.192;2022-11-20T08:46:06;1.30;;;1.20;;
11539;SDS011;5826;54.756;9.192;2022-11-20T08:48:32;1.30;;;1.20;;
11539;SDS011;5826;54.756;9.192;2022-11-20T08:50:58;1.40;;;1.30;;
11539;SDS011;5826;54.756;9.192;2022-11-20T08:53:24;1.50;;;1.40;;
11539;SDS011;5826;54.756;9.192;2022-11-20T08:55:50;1.67;;;1.57;;
11539;SDS011;5826;54.756;9.192;2022-11-20T08:58:15;1.60;;;1.40;;
11539;SDS011;5826;54.756;9.192;2022-11-20T09:00:41;1.70;;;1.60;;
11539;SDS011;5826;54.756;9.192;2022-11-20T09:03:06;1.70;;;1.60;;
11539;SDS011;5826;54.756;9.192;2022-11-20T09:05:32;1.87;;;1.57;;
11539;SDS011;5826;54.756;9.192;2022-11-20T09:07:57;1.53;;;1.40;;
11539;SDS011;5826;54.756;9.192;2022-11-20T09:10:24;1.70;;;1.60;;
11539;SDS011;5826;54.756;9.192;2022-11-20T09:12:50;1.60;;;1.50;;
11539;SDS011;5826;54.756;9.192;2022-11-20T09:15:17;1.30;;;1.20;;
11539;SDS011;5826;54.756;9.192;2022-11-20T09:17:49;1.40;;;1.30;;
11539;SDS011;5826;54.756;9.192;2022-11-20T09:20:16;1.33;;;1.23;;
11539;SDS011;5826;54.756;9.192;2022-11-20T09:22:41;1.87;;;1.40;;
11539;SDS011;5826;54.756;9.192;2022-11-20T09:25:07;1.40;;;1.30;;
11539;SDS011;5826;54.756;9.192;2022-11-20T09:27:32;1.53;;;1.43;;
11539;SDS011;5826;54.756;9.192;2022-11-20T09:29:58;2.07;;;1.40;;
11539;SDS011;5826;54.756;9.192;2022-11-20T09:32:23;1.53;;;1.40;;
11539;SDS011;5826;54.756;9.192;2022-11-20T09:34:49;1.97;;;1.40;;
11539;SDS011;5826;54.756;9.192;2022-11-20T09:37:14;2.67;;;1.60;;
11539;SDS011;5826;54.756;9.192;2022-11-20T09:39:40;1.60;;;1.37;;
11539;SDS011;5826;54.756;9.192;2022-11-20T09:44:53;1.60;;;1.50;;
11539;SDS011;5826;54.756;9.192;2022-11-20T09:47:37;1.40;;;1.27;;
11539;SDS011;5826;54.756;9.192;2022-11-20T09:50:23;1.30;;;1.20;;
11539;SDS011;5826;54.756;9.192;2022-11-20T09:53:04;1.50;;;1.30;;
11539;SDS011;5826;54.756;9.192;2022-11-20T09:55:41;1.97;;;1.73;;
11539;SDS011;5826;54.756;9.192;2022-11-20T09:58:07;2.60;;;2.40;;
11539;SDS011;5826;54.756;9.192;2022-11-20T10:00:49;2.60;;;1.80;;
11539;SDS011;5826;54.756;9.192;2022-11-20T10:03:19;2.13;;;1.50;;
11539;SDS011;5826;54.756;9.192;2022-11-20T10:05:55;1.97;;;1.77;;
11539;SDS011;5826;54.756;9.192;2022-11-20T10:08:22;2.40;;;1.60;;
11539;SDS011;5826;54.756;9.192;2022-11-20T10:11:14;2.93;;;1.80;;
11539;SDS011;5826;54.756;9.192;2022-11-20T10:19:47;1.67;;;1.50;;
11539;SDS011;5826;54.756;9.192;2022-11-20T10:22:39;1.27;;;1.10;;
11539;SDS011;5826;54.756;9.192;2022-11-20T10:25:32;1.40;;;1.30;;
11539;SDS011;5826;54.756;9.192;2022-11-20T10:28:10;1.47;;;1.37;;
11539;SDS011;5826;54.756;9.192;2022-11-20T10:31:00;1.70;;;1.60;;
11539;SDS011;5826;54.756;9.192;2022-11-20T10:33:33;1.53;;;1.43;;
11539;SDS011;5826;54.756;9.192;2022-11-20T10:36:07;1.50;;;1.30;;
11539;SDS011;5826;54.756;9.192;2022-11-20T10:38:50;1.50;;;1.20;;
11539;SDS011;5826;54.756;9.192;2022-11-20T10:41:32;1.27;;;1.03;;
11539;SDS011;5826;54.756;9.192;2022-11-20T10:44:11;1.90;;;1.40;;
11539;SDS011;5826;54.756;9.192;2022-11-20T10:47:00;1.40;;;1.30;;
11539;SDS011;5826;54.756;9.192;2022-11-20T10:49:28;1.33;;;1.23;;
11539;SDS011;5826;54.756;9.192;2022-11-20T11:00:39;1.43;;;1.33;;
11539;SDS011;5826;54.756;9.192;2022-11-20T11:03:14;1.47;;;1.30;;
11539;SDS011;5826;54.756;9.192;2022-11-20T11:05:50;1.53;;;1.20;;
11539;SDS011;5826;54.756;9.192;2022-11-20T11:08:22;1.60;;;1.50;;
11539;SDS011;5826;54.756;9.192;2022-11-20T11:10:53;1.37;;;1.27;;
11539;SDS011;5826;54.756;9.192;2022-11-20T11:13:26;1.70;;;1.43;;
11539;SDS011;5826;54.756;9.192;2022-11-20T11:15:53;1.60;;;1.50;;
11539;SDS011;5826;54.756;9.192;2022-11-20T11:18:22;1.67;;;1.43;;
11539;SDS011;5826;54.756;9.192;2022-11-20T11:20:53;1.73;;;1.33;;
11539;SDS011;5826;54.756;9.192;2022-11-20T11:25:58;1.50;;;1.30;;
11539;SDS011;5826;54.756;9.192;2022-11-20T11:28:25;1.60;;;1.37;;
11539;SDS011;5826;54.756;9.192;2022-11-20T11:30:52;1.40;;;1.27;;
11539;SDS011;5826;54.756;9.192;2022-11-20T11:33:37;1.97;;;1.47;;
11539;SDS011;5826;54.756;9.192;2022-11-20T11:36:04;1.20;;;1.10;;
11539;SDS011;5826;54.756;9.192;2022-11-20T11:38:41;1.30;;;1.20;;
11539;SDS011;5826;54.756;9.192;2022-11-20T11:41:16;1.40;;;1.30;;
11539;SDS011;5826;54.756;9.192;2022-11-20T11:47:01;1.23;;;1.13;;
11539;SDS011;5826;54.756;9.192;2022-11-20T11:49:28;1.20;;;1.10;;
11539;SDS011;5826;54.756;9.192;2022-11-20T11:51:59;1.67;;;1.07;;
11539;SDS011;5826;54.756;9.192;2022-11-20T11:54:27;2.00;;;1.20;;
11539;SDS011;5826;54.756;9.192;2022-11-20T11:57:03;1.40;;;1.10;;
11539;SDS011;5826;54.756;9.192;2022-11-20T11:59:44;1.00;;;0.87;;
11539;SDS011;5826;54.756;9.192;2022-11-20T12:02:29;1.13;;;1.03;;
11539;SDS011;5826;54.756;9.192;2022-11-20T12:05:05;1.20;;;1.10;;
11539;SDS011;5826;54.756;9.192;2022-11-20T12:07:52;1.10;;;1.00;;
11539;SDS011;5826;54.756;9.192;2022-11-20T12:10:37;1.70;;;1.10;;
11539;SDS011;5826;54.756;9.192;2022-11-20T12:15:44;1.10;;;1.10;;
11539;SDS011;5826;54.756;9.192;2022-11-20T12:18:14;1.27;;;1.10;;
11539;SDS011;5826;54.756;9.192;2022-11-20T12:20:44;1.20;;;1.10;;
11539;SDS011;5826;54.756;9.192;2022-11-20T12:25:46;1.23;;;1.13;;
11539;SDS011;5826;54.756;9.192;2022-11-20T12:28:18;1.20;;;1.10;;
11539;SDS011;5826;54.756;9.192;2022-11-20T12:31:13;1.10;;;1.00;;
11539;SDS011;5826;54.756;9.192;2022-11-20T12:34:34;8.20;;;7.10;;
11539;SDS011;5826;54.756;9.192;2022-11-20T12:37:20;14.80;;;13.20;;
11539;SDS011;5826;54.756;9.192;2022-11-20T12:40:02;12.23;;;11.03;;
11539;SDS011;5826;54.756;9.192;2022-11-20T12:42:57;5.83;;;5.30;;
11539;SDS011;5826;54.756;9.192;2022-11-20T12:46:25;2.80;;;2.60;;
11539;SDS011;5826;54.756;9.192;2022-11-20T12:49:24;2.50;;;2.30;;
11539;SDS011;5826;54.756;9.192;2022-11-20T12:52:17;5.15;;;3.78;;
11539;SDS011;5826;54.756;9.192;2022-11-20T13:00:42;7.55;;;6.75;;
11539;SDS011;5826;54.756;9.192;2022-11-20T13:05:59;26.23;;;23.42;;
11539;SDS011;5826;54.756;9.192;2022-11-20T13:08:41;21.17;;;18.45;;
11539;SDS011;5826;54.756;9.192;2022-11-20T13:14:13;6.00;;;5.50;;
11539;SDS011;5826;54.756;9.192;2022-11-20T13:16:58;3.60;;;3.30;;
11539;SDS011;5826;54.756;9.192;2022-11-20T13:19:29;3.70;;;3.40;;
11539;SDS011;5826;54.756;9.192;2022-11-20T13:21:55;5.10;;;4.63;;
11539;SDS011;5826;54.756;9.192;2022-11-20T13:27:05;8.45;;;6.80;;
11539;SDS011;5826;54.756;9.192;2022-11-20T13:29:45;8.07;;;6.82;;
11539;SDS011;5826;54.756;9.192;2022-11-20T13:32:15;8.90;;;7.68;;
11539;SDS011;5826;54.756;9.192;2022-11-20T13:35:02;7.40;;;6.60;;
11539;SDS011;5826;54.756;9.192;2022-11-20T13:37:33;3.85;;;3.53;;
11539;SDS011;5826;54.756;9.192;2022-11-20T13:42:54;2.80;;;2.60;;
11539;SDS011;5826;54.756;9.192;2022-11-20T13:45:30;9.77;;;8.80;;
11539;SDS011;5826;54.756;9.192;2022-11-20T13:47:57;13.15;;;11.80;;
11539;SDS011;5826;54.756;9.192;2022-11-20T13:55:57;9.50;;;8.60;;
11539;SDS011;5826;54.756;9.192;2022-11-20T14:01:09;4.50;;;4.10;;
11539;SDS011;5826;54.756;9.192;2022-11-20T14:03:44;5.80;;;5.40;;
11539;SDS011;5826;54.756;9.192;2022-11-20T14:06:14;4.47;;;4.18;;
11539;SDS011;5826;54.756;9.192;2022-11-20T14:08:52;4.22;;;3.92;;
11539;SDS011;5826;54.756;9.192;2022-11-20T14:11:26;4.68;;;4.35;;
11539;SDS011;5826;54.756;9.192;2022-11-20T14:13:55;3.30;;;3.10;;
11539;SDS011;5826;54.756;9.192;2022-11-20T14:16:39;2.63;;;2.42;;
11539;SDS011;5826;54.756;9.192;2022-11-20T14:21:46;2.50;;;2.30;;
11539;SDS011;5826;54.756;9.192;2022-11-20T14:24:12;3.28;;;3.00;;
11539;SDS011;5826;54.756;9.192;2022-11-20T14:26:42;3.05;;;2.85;;
11539;SDS011;5826;54.756;9.192;2022-11-20T14:29:16;2.95;;;2.72;;
11539;SDS011;5826;54.756;9.192;2022-11-20T14:31:44;3.08;;;2.70;;
11539;SDS011;5826;54.756;9.192;2022-11-20T14:34:21;3.10;;;2.78;;
11539;SDS011;5826;54.756;9.192;2022-11-20T14:36:50;2.47;;;2.28;;
11539;SDS011;5826;54.756;9.192;2022-11-20T14:39:20;3.77;;;3.40;;
11539;SDS011;5826;54.756;9.192;2022-11-20T14:41:53;3.37;;;3.03;;
11539;SDS011;5826;54.756;9.192;2022-11-20T14:44:26;6.00;;;4.97;;
11539;SDS011;5826;54.756;9.192;2022-11-20T14:46:57;3.87;;;3.40;;
11539;SDS011;5826;54.756;9.192;2022-11-20T14:49:25;5.43;;;4.90;;
11539;SDS011;5826;54.756;9.192;2022-11-20T14:52:10;5.10;;;4.50;;
11539;SDS011;5826;54.756;9.192;2022-11-20T14:54:49;5.50;;;5.00;;
11539;SDS011;5826;54.756;9.192;2022-11-20T14:57:20;4.37;;;3.97;;
11539;SDS011;5826;54.756;9.192;2022-11-20T15:00:03;4.03;;;3.63;;
11539;SDS011;5826;54.756;9.192;2022-11-20T15:02:31;11.83;;;10.57;;
11539;SDS011;5826;54.756;9.192;2022-11-20T15:04:58;8.87;;;7.97;;
11539;SDS011;5826;54.756;9.192;2022-11-20T15:07:38;8.43;;;7.63;;
11539;SDS011;5826;54.756;9.192;2022-11-20T15:10:22;6.70;;;6.10;;
11539;SDS011;5826;54.756;9.192;2022-11-20T15:13:11;5.03;;;4.53;;
11539;SDS011;5826;54.756;9.192;2022-11-20T15:15:42;4.30;;;3.90;;
11539;SDS011;5826;54.756;9.192;2022-11-20T15:21:10;2.50;;;2.30;;
11539;SDS011;5826;54.756;9.192;2022-11-20T15:23:41;2.33;;;2.13;;
11539;SDS011;5826;54.756;9.192;2022-11-20T15:26:07;2.80;;;1.70;;
11539;SDS011;5826;54.756;9.192;2022-11-20T15:28:34;1.53;;;1.43;;
11539;SDS011;5826;54.756;9.192;2022-11-20T15:31:02;1.57;;;1.43;;
11539;SDS011;5826;54.756;9.192;2022-11-20T15:33:29;2.53;;;1.40;;
11539;SDS011;5826;54.756;9.192;2022-11-20T15:35:55;1.80;;;1.70;;
11539;SDS011;5826;54.756;9.192;2022-11-20T15:38:20;1.70;;;1.60;;
11539;SDS011;5826;54.756;9.192;2022-11-20T15:40:46;2.20;;;1.90;;
11539;SDS011;5826;54.756;9.192;2022-11-20T15:43:11;2.27;;;1.73;;
11539;SDS011;5826;54.756;9.192;2022-11-20T15:48:20;2.43;;;1.80;;
11539;SDS011;5826;54.756;9.192;2022-11-20T15:50:56;2.93;;;2.00;;
11539;SDS011;5826;54.756;9.192;2022-11-20T15:53:34;3.43;;;3.13;;
11539;SDS011;5826;54.756;9.192;2022-11-20T15:56:00;3.50;;;3.00;;
11539;SDS011;5826;54.756;9.192;2022-11-20T15:58:25;2.30;;;2.10;;
11539;SDS011;5826;54.756;9.192;2022-11-20T16:00:51;8.07;;;4.80;;
11539;SDS011;5826;54.756;9.192;2022-11-20T16:03:17;9.07;;;5.80;;
11539;SDS011;5826;54.756;9.192;2022-11-20T16:05:43;5.33;;;4.27;;
11539;SDS011;5826;54.756;9.192;2022-11-20T16:08:09;4.87;;;3.63;;
11539;SDS011;5826;54.756;9.192;2022-11-20T16:10:35;3.73;;;3.00;;
11539;SDS011;5826;54.756;9.192;2022-11-20T16:13:01;4.60;;;4.20;;
11539;SDS011;5826;54.756;9.192;2022-11-20T16:15:47;4.30;;;3.90;;
11539;SDS011;5826;54.756;9.192;2022-11-20T16:18:18;4.47;;;3.80;;
11539;SDS011;5826;54.756;9.192;2022-11-20T16:20:48;4.03;;;3.60;;
11539;SDS011;5826;54.756;9.192;2022-11-20T16:23:15;6.00;;;5.40;;